Time;durP1;ratioP1;P1;durP2;ratioP2;P2;SDS_P1;SDS_P2;PMS_P1;PMS_P2;Temp;Humidity;BMP_temperature;BMP_pressure;BME280_temperature;BME280_humidity;BME280_pressure;Samples;Min_cycle;Max_cycle;Signal;HPM_P1;HPM_P2
2022/10/10 08:29:50;;;;;;;30.10;20.60;;;21.00;99.90;;;;;;6233076;22;20031;-92
2022/10/10 08:32:33;;;;;;;;;;;;;;;;;;;;;
2022/10/10 13:37:15;;;;;;;11.57;7.28;;;20.20;99.90;;;;;;6206337;22;20031;-93
2022/10/10 14:00:24;;;;;;;16.20;8.80;;;20.70;99.90;;;;;;6257220;22;20059;-93
2022/10/10 14:12:27;;;;;;;12.23;8.82;;;20.80;99.90;;;;;;6242684;23;20011;-92
2022/10/10 14:15:27;;;;;;;25.13;9.37;;;20.80;99.90;;;;;;6181632;23;20012;-92
2022/10/10 14:18:02;;;;;;;19.80;9.73;;;20.80;99.90;;;;;;6195429;23;20414;-92
2022/10/10 14:20:49;;;;;;;15.43;8.82;;;20.80;99.90;;;;;;6194220;23;20009;-94
2022/10/10 14:23:18;;;;;;;17.88;9.45;;;20.70;99.90;;;;;;6191005;23;20379;-94
2022/10/10 14:26:07;;;;;;;16.75;9.60;;;20.70;99.90;;;;;;6197470;23;20032;-94
2022/10/10 14:31:25;;;;;;;;;;;;;;;;;;;;;
2022/10/10 14:33:52;;;;;;;19.15;9.95;;;20.70;99.90;;;;;;6197174;23;20019;-94
2022/10/10 15:22:12;;;;;;;17.08;13.00;;;20.90;99.90;;;;;;6289582;22;20024;-92
2022/10/10 16:49:53;;;;;;;12.60;4.97;;;19.70;99.90;;;;;;6201142;22;20748;-93
2022/10/10 16:52:59;;;;;;;11.93;4.65;;;19.60;99.90;;;;;;6201467;23;20430;-92
2022/10/10 16:55:28;;;;;;;15.70;4.97;;;19.40;99.90;;;;;;6199174;23;20441;-92
2022/10/10 16:58:57;;;;;;;10.90;5.05;;;19.30;99.90;;;;;;6198828;23;20004;-92
2022/10/10 17:35:19;;;;;;;14.65;3.80;;;18.60;99.90;;;;;;6168595;23;20451;-93
2022/10/10 17:37:58;;;;;;;;;;;;;;;;;;;;;
2022/10/10 17:40:25;;;;;;;9.77;4.32;;;18.60;99.90;;;;;;6137467;23;20013;-90
2022/10/10 17:42:52;;;;;;;12.23;3.75;;;18.60;99.90;;;;;;6135054;23;20005;-93
2022/10/10 17:45:25;;;;;;;7.55;3.67;;;18.60;99.90;;;;;;6134623;23;20366;-91
2022/10/10 17:47:52;;;;;;;9.20;3.53;;;18.60;99.90;;;;;;6203134;22;20028;-93
2022/10/10 17:50:29;;;;;;;8.45;4.25;;;18.60;99.90;;;;;;6165063;23;20005;-91
2022/10/10 17:52:59;;;;;;;8.80;3.75;;;18.50;99.90;;;;;;6140247;23;20013;-90
2022/10/10 17:55:30;;;;;;;9.05;3.75;;;18.50;99.90;;;;;;6163763;23;20049;-92
2022/10/10 18:07:37;;;;;;;8.40;4.03;;;18.40;99.90;;;;;;6249247;22;20027;-94
2022/10/10 18:10:18;;;;;;;12.55;3.95;;;18.40;99.90;;;;;;6201104;23;20015;-95
2022/10/10 18:12:51;;;;;;;8.48;4.38;;;18.40;99.90;;;;;;6198164;23;20008;-93
2022/10/10 18:15:26;;;;;;;8.05;4.40;;;18.30;99.90;;;;;;6200103;23;20031;-92
2022/10/10 18:56:10;;;;;;;14.23;6.80;;;18.60;99.90;;;;;;6230409;22;20035;-92
2022/10/10 19:27:04;;;;;;;11.50;5.20;;;18.80;99.90;;;;;;6246292;22;20047;-92
2022/10/10 19:30:14;;;;;;;9.02;4.15;;;18.80;99.90;;;;;;6212378;22;20050;-93
2022/10/10 19:32:45;;;;;;;7.07;3.22;;;18.80;99.90;;;;;;6162692;23;20017;-93
2022/10/10 19:35:14;;;;;;;12.13;4.45;;;18.80;99.90;;;;;;6139324;23;20019;-93
2022/10/10 19:37:49;;;;;;;8.13;3.55;;;18.80;99.90;;;;;;6163975;23;20064;-93
2022/10/10 19:40:54;;;;;;;10.48;3.35;;;18.80;99.90;;;;;;6167011;23;20012;-92
2022/10/10 19:43:26;;;;;;;;;;;18.70;99.90;;;;;;6166066;23;20009;-95
2022/10/10 19:46:35;;;;;;;11.00;3.20;;;18.70;99.90;;;;;;6197303;23;19935;-92
2022/10/10 19:49:47;;;;;;;7.72;3.25;;;18.70;99.90;;;;;;6172937;23;20009;-91
2022/10/10 19:52:21;;;;;;;8.73;3.05;;;18.70;99.90;;;;;;6165755;23;20461;-94
2022/10/10 19:55:06;;;;;;;5.40;3.17;;;18.80;99.90;;;;;;6143465;23;20001;-94
2022/10/10 19:57:41;;;;;;;6.50;3.40;;;18.80;99.90;;;;;;6147287;23;20088;-92
2022/10/10 21:29:34;;;;;;;19.08;6.32;;;18.20;99.90;;;;;;6248900;22;20031;-93
